KR-0346 weather

Haeundae Exordium Apartments Heliports
Haeundae (Busan), Busan Gwang'yeogsi, South Korea

Public forecast

Using degrees Celsius for public forecast. Weather courtesy of forecast.io.

METAR (pilot weather report)

Closest report is Gimhae International Airport, 9.8 nm (18.2 km) W. Retrieved 2019/08/18 00:00 UTC (3 minutes ago):

RKPK 180000Z 27002KT 6000 FEW030 SCT200 28/23 Q1006

TAF (pilot weather forecast)

Forecast is more than 6 hours old.

Closest forecast is Gimhae International Airport, 9.8 nm (18.2 km) W. Retrieved 2019/08/17 18:00 UTC (6 hours ago):

TAF RKPK 171700Z 1718/1824 33006KT 9999 BKN030 BKN200 TX32/1805Z TN24/1820Z BECMG 1723/1724 18010KT SCT030 SCT200 BECMG 1814/1815 33006KT